Time;durP1;ratioP1;P1;durP2;ratioP2;P2;SDS_P1;SDS_P2;PMS_P1;PMS_P2;Temp;Humidity;BMP_temperature;BMP_pressure;BME280_temperature;BME280_humidity;BME280_pressure;Samples;Min_cycle;Max_cycle;Signal;HPM_P1;HPM_P2
2022/01/13 00:01:23;;;;;;;40.65;7.68;;;4.90;99.90;;;;;;4973092;28;20039;-74
2022/01/13 00:03:48;;;;;;;26.70;6.95;;;5.00;99.90;;;;;;4975536;28;20391;-74
2022/01/13 00:06:14;;;;;;;33.67;6.82;;;4.90;99.90;;;;;;4975377;28;20023;-74
2022/01/13 00:08:40;;;;;;;28.65;6.88;;;4.90;99.90;;;;;;4974308;28;20039;-75
2022/01/13 00:11:06;;;;;;;33.35;7.20;;;4.90;99.90;;;;;;4975213;28;20033;-73
2022/01/13 00:13:45;;;;;;;32.25;6.25;;;4.90;99.90;;;;;;4975571;28;20030;-74
2022/01/13 00:18:49;;;;;;;35.53;6.90;;;4.90;99.90;;;;;;4975808;28;20465;-74
2022/01/13 00:21:29;;;;;;;23.40;6.45;;;4.90;99.90;;;;;;4975253;28;20030;-72
2022/01/13 00:23:57;;;;;;;32.10;7.13;;;4.90;99.90;;;;;;4975157;28;20126;-74
2022/01/13 00:26:25;;;;;;;;;;;4.90;99.90;;;;;;4973995;28;20023;-73
2022/01/13 00:28:52;;;;;;;;;;;4.90;99.90;;;;;;4974355;28;19956;-73
2022/01/13 00:31:27;;;;;;;31.27;6.57;;;5.00;99.90;;;;;;4973208;28;19918;-75
2022/01/13 00:33:57;;;;;;;24.17;6.30;;;5.00;99.90;;;;;;4975363;28;20105;-74
2022/01/13 00:36:25;;;;;;;21.88;6.43;;;5.10;99.90;;;;;;4974438;28;20538;-73
2022/01/13 00:38:51;;;;;;;26.67;6.65;;;5.10;99.90;;;;;;4973894;28;20043;-74
2022/01/13 00:41:17;;;;;;;25.48;7.15;;;5.10;99.90;;;;;;4973485;28;20037;-74
2022/01/13 00:43:46;;;;;;;26.02;6.10;;;5.10;99.90;;;;;;4974799;28;20031;-74
2022/01/13 00:46:26;;;;;;;22.35;6.57;;;5.00;99.90;;;;;;4974604;28;20510;-73
2022/01/13 00:48:53;;;;;;;24.80;6.05;;;4.90;99.90;;;;;;4973967;28;20380;-73
2022/01/13 00:51:20;;;;;;;23.23;5.43;;;5.00;99.90;;;;;;4974252;28;20384;-74
2022/01/13 00:53:45;;;;;;;33.25;6.47;;;5.00;99.90;;;;;;4974924;28;20098;-74
2022/01/13 00:56:12;;;;;;;22.08;6.47;;;4.90;99.90;;;;;;4974610;28;20117;-74
2022/01/13 00:58:38;;;;;;;24.13;6.43;;;4.90;99.90;;;;;;4974848;28;20027;-74
2022/01/13 01:01:06;;;;;;;21.08;6.55;;;5.00;99.90;;;;;;4973097;28;20035;-74
2022/01/13 01:03:35;;;;;;;27.27;7.38;;;5.00;99.90;;;;;;4974471;28;20037;-74
2022/01/13 01:06:03;;;;;;;25.55;6.93;;;5.00;99.90;;;;;;4973947;28;20038;-73
2022/01/13 01:08:30;;;;;;;28.63;7.07;;;5.00;99.90;;;;;;4973967;28;20034;-73
2022/01/13 01:10:56;;;;;;;22.50;6.90;;;5.10;99.90;;;;;;4973969;28;20082;-74
2022/01/13 01:13:27;;;;;;;25.10;7.68;;;5.10;99.90;;;;;;4973799;28;20066;-74
2022/01/13 01:15:56;;;;;;;24.38;6.78;;;5.10;99.90;;;;;;4973377;28;20030;-74
2022/01/13 01:23:30;;;;;;;27.98;7.63;;;5.00;99.90;;;;;;4970314;28;20042;-76
2022/01/13 01:26:36;;;;;;;30.30;7.10;;;5.10;99.90;;;;;;4972375;28;20113;-75
2022/01/13 01:28:55;;;;;;;29.35;6.93;;;5.10;99.90;;;;;;4964902;28;20034;-75
2022/01/13 01:31:28;;;;;;;45.58;7.80;;;5.10;99.90;;;;;;4969650;28;20142;-75
2022/01/13 01:34:12;;;;;;;26.40;6.78;;;5.10;99.90;;;;;;4969099;28;20022;-75
2022/01/13 01:36:38;;;;;;;28.50;7.53;;;5.10;99.90;;;;;;4972897;28;20081;-75
2022/01/13 01:39:06;;;;;;;32.03;8.52;;;5.10;99.90;;;;;;4973773;28;20087;-75
2022/01/13 01:41:35;;;;;;;35.38;7.65;;;5.10;99.90;;;;;;4973576;28;20049;-74
2022/01/13 01:44:14;;;;;;;27.70;8.25;;;5.10;99.90;;;;;;4973421;28;20026;-75
2022/01/13 01:46:44;;;;;;;33.08;7.55;;;5.20;99.90;;;;;;4969563;28;20114;-74
2022/01/13 01:49:16;;;;;;;28.25;8.25;;;5.20;99.90;;;;;;4973658;28;20161;-74
2022/01/13 01:51:43;;;;;;;41.42;7.68;;;5.30;99.90;;;;;;4970837;28;20518;-76
2022/01/13 01:54:09;;;;;;;28.63;7.57;;;5.30;99.90;;;;;;4972510;28;20113;-75
2022/01/13 01:56:37;;;;;;;31.65;8.30;;;5.30;99.90;;;;;;4973270;28;20129;-75
2022/01/13 01:59:04;;;;;;;34.28;8.45;;;5.30;99.90;;;;;;4972722;28;20027;-76
2022/01/13 02:01:30;;;;;;;62.13;7.97;;;5.30;99.90;;;;;;4973265;28;20042;-75
2022/01/13 02:03:56;;;;;;;35.67;7.68;;;5.30;99.90;;;;;;4973830;28;20031;-74
2022/01/13 02:06:22;;;;;;;38.78;8.10;;;5.20;99.90;;;;;;4971379;28;20479;-75
2022/01/13 02:08:48;;;;;;;30.27;7.18;;;5.20;99.90;;;;;;4972427;28;20113;-75
2022/01/13 02:11:14;;;;;;;55.92;8.32;;;5.30;99.90;;;;;;4972703;28;20392;-75
2022/01/13 02:13:48;;;;;;;31.92;8.15;;;5.30;99.90;;;;;;4974191;28;20023;-76
2022/01/13 02:19:11;;;;;;;;;;;5.30;99.90;;;;;;4949974;28;20599;-76
2022/01/13 02:21:37;;;;;;;52.38;7.97;;;5.30;99.90;;;;;;4974156;28;19914;-75
2022/01/13 02:24:03;;;;;;;32.10;8.23;;;5.30;99.90;;;;;;4975480;28;20427;-74
2022/01/13 02:26:29;;;;;;;51.75;9.20;;;5.20;99.90;;;;;;4977481;28;20374;-76
2022/01/13 02:28:54;;;;;;;45.25;9.35;;;5.30;99.90;;;;;;4977229;28;20122;-75
2022/01/13 02:31:21;;;;;;;45.70;10.38;;;5.20;99.90;;;;;;4978440;28;20083;-75
2022/01/13 02:33:47;;;;;;;46.65;9.10;;;5.10;99.90;;;;;;4992033;28;20031;-74
2022/01/13 02:36:19;;;;;;;47.25;10.30;;;5.20;99.90;;;;;;4992487;28;20411;-75
2022/01/13 02:38:49;;;;;;;62.00;11.73;;;5.20;99.90;;;;;;4987567;28;20037;-75
2022/01/13 02:41:15;;;;;;;62.92;11.07;;;5.10;99.90;;;;;;4986377;28;20491;-76
2022/01/13 02:43:43;;;;;;;39.63;9.98;;;5.20;99.90;;;;;;4996405;28;20034;-75
2022/01/13 02:49:14;;;;;;;58.05;11.30;;;5.20;99.90;;;;;;5000191;28;20029;-76
2022/01/13 02:51:41;;;;;;;58.72;12.05;;;5.20;99.90;;;;;;4999494;28;20107;-74
2022/01/13 02:54:07;;;;;;;59.53;12.27;;;5.20;99.90;;;;;;5000126;28;20022;-74
2022/01/13 02:56:34;;;;;;;45.28;11.45;;;5.20;99.90;;;;;;4998665;28;20039;-77
2022/01/13 02:59:00;;;;;;;46.15;12.07;;;5.30;99.90;;;;;;4998449;28;20019;-76
2022/01/13 03:01:26;;;;;;;55.13;12.82;;;5.30;99.90;;;;;;4998365;28;20093;-75
2022/01/13 03:03:52;;;;;;;58.90;14.10;;;5.30;99.90;;;;;;4999375;28;20049;-77
2022/01/13 03:06:38;;;;;;;57.42;13.00;;;5.30;99.90;;;;;;4998555;28;20057;-74
2022/01/13 03:09:13;;;;;;;59.17;12.45;;;5.30;99.90;;;;;;4980289;28;20034;-76
2022/01/13 03:11:39;;;;;;;57.10;11.02;;;5.30;99.90;;;;;;4996164;28;20034;-76
2022/01/13 03:14:08;;;;;;;51.95;11.98;;;5.20;99.90;;;;;;4999204;28;20035;-73
2022/01/13 03:16:34;;;;;;;50.67;11.80;;;5.20;99.90;;;;;;4999290;28;20023;-75
2022/01/13 03:19:00;;;;;;;37.53;10.20;;;5.30;99.90;;;;;;4999550;28;20060;-76
2022/01/13 03:21:25;;;;;;;44.95;10.15;;;5.30;99.90;;;;;;4999138;28;20011;-74
2022/01/13 03:23:51;;;;;;;66.97;11.15;;;5.30;99.90;;;;;;4998926;28;20007;-74
2022/01/13 03:26:20;;;;;;;63.50;11.15;;;5.30;99.90;;;;;;4998341;28;20043;-76
2022/01/13 03:28:54;;;;;;;54.13;9.95;;;5.30;99.90;;;;;;5000377;28;20035;-75
2022/01/13 03:31:23;;;;;;;52.78;11.18;;;5.30;99.90;;;;;;5000138;28;20033;-78
2022/01/13 03:33:50;;;;;;;51.67;10.27;;;5.30;99.90;;;;;;4999799;28;20037;-77
2022/01/13 03:36:17;;;;;;;52.75;11.23;;;5.30;99.90;;;;;;4998100;28;20079;-76
2022/01/13 03:38:42;;;;;;;49.38;11.63;;;5.30;99.90;;;;;;4998479;28;20019;-75
2022/01/13 03:41:08;;;;;;;46.30;10.38;;;5.30;99.90;;;;;;4998331;28;20038;-77
2022/01/13 03:43:36;;;;;;;79.43;10.82;;;5.30;99.90;;;;;;4997422;28;20035;-75
2022/01/13 03:46:03;;;;;;;38.10;10.63;;;5.30;99.90;;;;;;4993768;28;20030;-77
2022/01/13 03:48:29;;;;;;;58.70;11.00;;;5.30;99.90;;;;;;4988131;28;20120;-76
2022/01/13 03:50:54;;;;;;;54.85;11.50;;;5.30;99.90;;;;;;4981748;28;20082;-76
2022/01/13 03:53:58;;;;;;;54.15;11.25;;;5.40;99.90;;;;;;4980776;28;20042;-75
2022/01/13 03:56:33;;;;;;;52.55;11.02;;;5.30;99.90;;;;;;4973229;28;20035;-75
2022/01/13 03:59:05;;;;;;;50.35;10.48;;;5.30;99.90;;;;;;4975402;28;20035;-75
2022/01/13 04:02:01;;;;;;;57.28;11.15;;;5.30;99.90;;;;;;4976810;28;20054;-75
2022/01/13 04:04:29;;;;;;;50.13;10.87;;;5.20;99.90;;;;;;4975820;28;20434;-75
2022/01/13 04:07:10;;;;;;;53.58;9.57;;;5.20;99.90;;;;;;4973500;28;20727;-74
2022/01/13 04:09:55;;;;;;;48.97;11.13;;;5.20;99.90;;;;;;4973595;28;20039;-75
2022/01/13 04:12:24;;;;;;;49.78;11.68;;;5.20;99.90;;;;;;4974877;28;20109;-74
2022/01/13 04:14:54;;;;;;;42.80;10.65;;;5.20;99.90;;;;;;4975497;28;20021;-75
2022/01/13 04:17:22;;;;;;;47.67;11.90;;;5.20;99.90;;;;;;4966038;28;20113;-76
2022/01/13 04:19:48;;;;;;;45.08;10.68;;;5.30;99.90;;;;;;4967577;28;20077;-75
2022/01/13 04:22:15;;;;;;;44.20;10.27;;;5.30;99.90;;;;;;4973931;28;20038;-75
2022/01/13 04:24:46;;;;;;;42.87;11.33;;;5.30;99.90;;;;;;4974243;28;20038;-74
2022/01/13 04:27:21;;;;;;;52.72;11.82;;;5.30;99.90;;;;;;4972597;28;21129;-75
2022/01/13 04:29:59;;;;;;;46.00;11.27;;;5.40;99.90;;;;;;4975065;28;20085;-75
2022/01/13 04:32:25;;;;;;;46.83;11.23;;;5.40;99.90;;;;;;4969298;28;20092;-75
2022/01/13 04:34:51;;;;;;;42.88;10.30;;;5.30;99.90;;;;;;4975173;28;20590;-75
2022/01/13 04:37:16;;;;;;;40.88;11.30;;;5.30;99.90;;;;;;4974347;28;20019;-75
2022/01/13 04:39:42;;;;;;;52.17;12.23;;;5.30;99.90;;;;;;4974740;28;20418;-75
2022/01/13 04:42:10;;;;;;;47.90;11.23;;;5.40;99.90;;;;;;4974555;28;20015;-75
2022/01/13 04:44:35;;;;;;;;;;;5.40;99.90;;;;;;4975346;28;20030;-76
2022/01/13 04:47:07;;;;;;;57.67;11.23;;;5.40;99.90;;;;;;4974081;28;19914;-75
2022/01/13 04:49:33;;;;;;;43.90;9.40;;;5.40;99.90;;;;;;4974587;28;20118;-74
2022/01/13 04:51:59;;;;;;;37.72;10.52;;;5.40;99.90;;;;;;4973052;28;20526;-76
2022/01/13 04:54:24;;;;;;;50.67;10.90;;;5.50;99.90;;;;;;4974766;28;20085;-76
2022/01/13 04:59:17;;;;;;;37.30;10.23;;;5.50;99.90;;;;;;4974396;28;20018;-75
2022/01/13 05:01:42;;;;;;;47.13;9.68;;;5.40;99.90;;;;;;4973647;28;20026;-75
2022/01/13 05:04:08;;;;;;;39.30;8.05;;;5.50;99.90;;;;;;4974247;28;20130;-75
2022/01/13 05:06:35;;;;;;;48.83;9.40;;;5.40;99.90;;;;;;4972961;28;20042;-76
2022/01/13 05:09:01;;;;;;;56.55;9.05;;;5.40;99.90;;;;;;4970498;28;20030;-75
2022/01/13 05:11:26;;;;;;;44.17;9.32;;;5.40;99.90;;;;;;4971917;28;20042;-75
2022/01/13 05:13:52;;;;;;;36.75;8.13;;;5.40;99.90;;;;;;4956082;28;20015;-76
2022/01/13 05:21:37;;;;;;;47.80;9.30;;;5.50;99.90;;;;;;4973942;28;20062;-74
2022/01/13 05:24:03;;;;;;;52.03;10.00;;;5.50;99.90;;;;;;4974183;28;20077;-74
2022/01/13 05:26:29;;;;;;;50.63;9.00;;;5.50;99.90;;;;;;4973993;28;20109;-75
2022/01/13 05:28:54;;;;;;;46.70;10.48;;;5.40;99.90;;;;;;4973359;28;20062;-75
2022/01/13 05:31:20;;;;;;;44.85;10.93;;;5.40;99.90;;;;;;4971203;28;20514;-75
2022/01/13 05:33:45;;;;;;;41.65;10.45;;;5.40;99.90;;;;;;4965451;28;20067;-75
2022/01/13 05:36:13;;;;;;;67.50;10.27;;;5.30;99.90;;;;;;4969618;28;20026;-74
2022/01/13 05:38:40;;;;;;;53.22;11.52;;;5.40;99.90;;;;;;4972351;28;20434;-75
2022/01/13 05:41:05;;;;;;;43.55;9.43;;;5.40;99.90;;;;;;4973079;28;20023;-75
2022/01/13 05:43:31;;;;;;;47.95;8.35;;;5.40;99.90;;;;;;4973589;28;20046;-75
2022/01/13 05:45:57;;;;;;;48.92;10.02;;;5.40;99.90;;;;;;4972346;28;20062;-75
2022/01/13 05:48:22;;;;;;;46.35;10.65;;;5.40;99.90;;;;;;4971966;28;20406;-74
2022/01/13 05:50:48;;;;;;;41.10;10.00;;;5.40;99.90;;;;;;4972833;28;20022;-74
2022/01/13 05:53:14;;;;;;;50.42;10.30;;;5.40;99.90;;;;;;4971588;28;20035;-75
2022/01/13 05:55:40;;;;;;;51.88;10.63;;;5.40;99.90;;;;;;4972551;28;20291;-74
2022/01/13 05:58:05;;;;;;;57.90;8.55;;;5.30;99.90;;;;;;4973421;28;20049;-74
2022/01/13 06:00:31;;;;;;;65.50;10.80;;;5.30;99.90;;;;;;4977589;28;20074;-73
2022/01/13 06:02:57;;;;;;;43.40;10.85;;;5.30;99.90;;;;;;4971806;28;20058;-74
2022/01/13 06:05:22;;;;;;;31.33;9.73;;;5.40;99.90;;;;;;4976747;28;20070;-74
2022/01/13 06:07:48;;;;;;;51.78;10.63;;;5.30;99.90;;;;;;4977193;28;20035;-75
2022/01/13 06:10:19;;;;;;;44.25;9.55;;;5.40;99.90;;;;;;4975895;28;20019;-74
2022/01/13 06:12:49;;;;;;;32.08;9.02;;;5.40;99.90;;;;;;4976859;28;20023;-74
2022/01/13 06:15:18;;;;;;;37.35;8.98;;;5.40;99.90;;;;;;4977532;28;20031;-74
2022/01/13 06:17:45;;;;;;;42.08;8.90;;;5.40;99.90;;;;;;4976569;28;20081;-74
2022/01/13 06:20:12;;;;;;;40.83;10.27;;;5.40;99.90;;;;;;4977230;28;20081;-75
2022/01/13 06:22:39;;;;;;;48.60;10.57;;;5.40;99.90;;;;;;4969723;28;20121;-74
2022/01/13 06:25:08;;;;;;;31.35;7.15;;;5.50;99.90;;;;;;4976940;28;20110;-74
2022/01/13 06:27:34;;;;;;;45.70;10.43;;;5.50;99.90;;;;;;4976669;28;20082;-75
2022/01/13 06:30:00;;;;;;;49.63;10.27;;;5.50;99.90;;;;;;4975980;28;20089;-75
2022/01/13 06:32:26;;;;;;;37.10;10.07;;;5.50;99.90;;;;;;4972403;28;20043;-74
2022/01/13 06:34:52;;;;;;;43.75;10.98;;;5.50;99.90;;;;;;4976243;28;20043;-73
2022/01/13 06:37:19;;;;;;;30.35;8.88;;;5.50;99.90;;;;;;4975772;28;20037;-74
2022/01/13 06:39:45;;;;;;;51.10;11.02;;;5.50;99.90;;;;;;4977312;28;20034;-74
2022/01/13 06:42:12;;;;;;;50.97;11.52;;;5.50;99.90;;;;;;4974806;28;20499;-75
2022/01/13 06:44:38;;;;;;;49.20;11.80;;;5.50;99.90;;;;;;4977213;28;20018;-74
2022/01/13 06:47:05;;;;;;;38.13;10.93;;;5.50;99.90;;;;;;4976897;28;20106;-75
2022/01/13 06:49:31;;;;;;;41.97;10.85;;;5.50;99.90;;;;;;4977556;28;20061;-74
2022/01/13 06:51:57;;;;;;;53.20;10.88;;;5.50;99.90;;;;;;4960123;28;20522;-74
2022/01/13 06:54:23;;;;;;;47.78;11.40;;;5.40;99.90;;;;;;4976890;28;20101;-74
2022/01/13 06:56:49;;;;;;;45.13;12.00;;;5.40;99.90;;;;;;4976723;28;20027;-74
2022/01/13 06:59:15;;;;;;;56.85;12.77;;;5.40;99.90;;;;;;4976901;28;20078;-75
2022/01/13 07:01:42;;;;;;;47.03;10.77;;;5.50;99.90;;;;;;4975443;28;20466;-74
2022/01/13 07:04:13;;;;;;;47.40;11.88;;;5.50;99.90;;;;;;4976759;28;20027;-74
2022/01/13 07:06:40;;;;;;;51.38;12.85;;;5.40;99.90;;;;;;4976308;28;20113;-74
2022/01/13 07:09:09;;;;;;;38.70;10.57;;;5.50;99.90;;;;;;4976394;28;20478;-74
2022/01/13 07:11:35;;;;;;;40.22;11.15;;;5.50;99.90;;;;;;4976379;28;20278;-74
2022/01/13 07:14:01;;;;;;;39.75;11.55;;;5.50;99.90;;;;;;4976794;28;20035;-74
2022/01/13 07:16:26;;;;;;;47.30;12.57;;;5.50;99.90;;;;;;4976294;28;20038;-75
2022/01/13 07:18:52;;;;;;;43.30;11.43;;;5.50;99.90;;;;;;4975293;28;20030;-74
2022/01/13 07:21:21;;;;;;;47.28;12.88;;;5.40;99.90;;;;;;4976633;28;20022;-74
2022/01/13 07:23:46;;;;;;;;;;;5.50;99.90;;;;;;4976648;28;20034;-74
2022/01/13 07:26:12;;;;;;;31.02;9.45;;;5.50;99.90;;;;;;4974368;28;19914;-75
2022/01/13 07:28:38;;;;;;;37.28;9.40;;;5.50;99.90;;;;;;4976138;28;20053;-74
2022/01/13 07:31:03;;;;;;;40.60;10.63;;;5.50;99.90;;;;;;4975016;28;20078;-75
2022/01/13 07:33:29;;;;;;;34.33;10.32;;;5.60;99.90;;;;;;4974370;28;20042;-74
2022/01/13 07:35:55;;;;;;;42.55;12.20;;;5.50;99.90;;;;;;4965902;28;20033;-74
2022/01/13 07:38:20;;;;;;;39.90;11.45;;;5.50;99.90;;;;;;4976495;28;20022;-74
2022/01/13 07:40:47;;;;;;;44.70;9.75;;;5.60;99.90;;;;;;4975752;28;20475;-73
2022/01/13 07:43:13;;;;;;;49.05;10.82;;;5.50;99.90;;;;;;4974699;28;20069;-74
2022/01/13 07:45:39;;;;;;;40.33;10.48;;;5.50;99.90;;;;;;4974696;28;20059;-75
2022/01/13 07:48:05;;;;;;;36.55;9.88;;;5.50;99.90;;;;;;4975929;28;20073;-74
2022/01/13 07:50:31;;;;;;;36.60;10.30;;;5.60;99.90;;;;;;4975942;28;20023;-74
2022/01/13 07:52:57;;;;;;;38.30;9.70;;;5.60;99.90;;;;;;4976022;28;20429;-74
2022/01/13 07:55:22;;;;;;;43.15;10.70;;;5.60;99.90;;;;;;4975451;28;20506;-74
2022/01/13 07:57:48;;;;;;;38.35;10.95;;;5.60;99.90;;;;;;4975293;28;20023;-74
2022/01/13 08:00:15;;;;;;;43.80;10.43;;;5.60;99.90;;;;;;4975073;28;20030;-73
2022/01/13 08:02:41;;;;;;;37.55;10.70;;;5.70;99.90;;;;;;4973993;28;20023;-74
2022/01/13 08:05:08;;;;;;;46.08;10.65;;;5.60;99.90;;;;;;4974355;28;20045;-74
2022/01/13 08:07:34;;;;;;;44.40;10.55;;;5.60;99.90;;;;;;4974444;28;20089;-74
2022/01/13 08:10:01;;;;;;;41.80;10.13;;;5.60;99.90;;;;;;4975345;28;20495;-75
2022/01/13 08:12:26;;;;;;;32.33;9.93;;;5.60;99.90;;;;;;4965610;28;20023;-74
2022/01/13 08:14:53;;;;;;;39.67;11.13;;;5.60;99.90;;;;;;4973193;28;20089;-75
2022/01/13 08:19:45;;;;;;;33.60;8.52;;;5.60;99.90;;;;;;4974191;28;20166;-74
2022/01/13 08:20:05;;;;;;;45.90;10.70;;;5.60;99.90;;;;;;4974900;28;20038;-75
2022/01/13 08:22:31;;;;;;;44.47;12.23;;;5.60;99.90;;;;;;4974268;28;20102;-74
2022/01/13 08:24:56;;;;;;;51.58;11.82;;;5.60;99.90;;;;;;4969099;28;20113;-75
2022/01/13 08:27:22;;;;;;;49.75;11.18;;;5.60;99.90;;;;;;4968220;28;20025;-73
2022/01/13 08:29:48;;;;;;;43.47;10.05;;;5.60;99.90;;;;;;4969137;28;20031;-74
2022/01/13 08:32:13;;;;;;;43.03;11.00;;;5.50;99.90;;;;;;4973301;28;20047;-74
2022/01/13 08:34:39;;;;;;;45.28;11.05;;;5.60;99.90;;;;;;4962842;28;20537;-75
2022/01/13 08:37:05;;;;;;;45.75;12.07;;;5.60;99.90;;;;;;4975057;28;20027;-74
2022/01/13 08:39:37;;;;;;;45.92;11.68;;;5.70;99.90;;;;;;4974876;28;20062;-76
2022/01/13 08:42:03;;;;;;;40.80;11.05;;;5.70;99.90;;;;;;4973294;28;20031;-74
2022/01/13 08:44:28;;;;;;;35.90;11.68;;;5.70;99.90;;;;;;4974567;28;20038;-75
2022/01/13 08:46:54;;;;;;;44.03;11.75;;;5.70;99.90;;;;;;4985690;28;20039;-74
2022/01/13 08:49:20;;;;;;;46.08;10.57;;;5.70;99.90;;;;;;4974388;28;20035;-75
2022/01/13 08:51:45;;;;;;;42.25;11.25;;;5.80;99.90;;;;;;4972834;28;20062;-73
2022/01/13 08:54:11;;;;;;;41.55;11.25;;;5.80;99.90;;;;;;4973304;28;20117;-75
2022/01/13 08:56:37;;;;;;;49.53;11.98;;;5.80;99.90;;;;;;4974531;28;20034;-75
2022/01/13 08:59:03;;;;;;;42.92;11.20;;;5.90;99.90;;;;;;4972317;28;20066;-74
2022/01/13 09:01:30;;;;;;;48.63;12.27;;;5.90;99.90;;;;;;4973773;28;20383;-74
2022/01/13 09:03:56;;;;;;;43.42;10.60;;;5.90;99.90;;;;;;4972334;28;20038;-75
2022/01/13 09:06:21;;;;;;;37.45;11.35;;;5.90;99.90;;;;;;4973826;28;20499;-77
2022/01/13 09:08:48;;;;;;;43.08;11.63;;;6.00;99.90;;;;;;4972701;28;20054;-76
2022/01/13 09:11:13;;;;;;;50.78;11.23;;;6.00;99.90;;;;;;4970565;28;20034;-76
2022/01/13 09:13:39;;;;;;;35.70;9.63;;;6.00;99.90;;;;;;4973811;28;20551;-74
2022/01/13 09:16:17;;;;;;;49.17;11.95;;;6.00;99.90;;;;;;4960549;28;20034;-77
2022/01/13 09:19:07;;;;;;;44.13;11.85;;;6.00;99.90;;;;;;4971882;28;20022;-75
2022/01/13 09:21:30;;;;;;;70.28;13.57;;;6.00;99.90;;;;;;4974139;28;20042;-75
2022/01/13 09:23:56;;;;;;;38.90;11.18;;;6.00;99.90;;;;;;4973748;28;20034;-76
2022/01/13 09:26:21;;;;;;;40.05;11.73;;;6.00;99.90;;;;;;4972782;28;20421;-76
2022/01/13 09:28:47;;;;;;;47.53;12.60;;;6.00;99.90;;;;;;4967106;28;20103;-76
2022/01/13 09:31:13;;;;;;;60.85;14.43;;;6.00;99.90;;;;;;4971283;28;20411;-76
2022/01/13 09:33:39;;;;;;;43.25;10.98;;;6.10;99.90;;;;;;4965123;28;20025;-75
2022/01/13 09:36:09;;;;;;;55.53;12.80;;;6.10;99.90;;;;;;4961728;28;20029;-74
2022/01/13 09:38:35;;;;;;;41.15;11.57;;;6.20;99.90;;;;;;4968654;28;20169;-77
2022/01/13 09:41:01;;;;;;;41.17;12.52;;;6.20;99.90;;;;;;4970529;28;20027;-75
2022/01/13 09:43:28;;;;;;;52.70;13.23;;;6.30;99.90;;;;;;4970821;28;20066;-74
2022/01/13 09:45:56;;;;;;;45.45;12.57;;;6.30;99.90;;;;;;4970853;28;20039;-75
2022/01/13 09:48:21;;;;;;;52.33;12.93;;;6.30;99.90;;;;;;4969930;28;20030;-75
2022/01/13 09:50:48;;;;;;;52.60;12.10;;;6.30;99.90;;;;;;4975606;28;20015;-75
2022/01/13 09:53:15;;;;;;;45.28;12.68;;;6.30;99.90;;;;;;4988762;28;20031;-75
2022/01/13 09:55:44;;;;;;;59.13;13.23;;;6.30;99.90;;;;;;4986944;28;20038;-74
2022/01/13 09:58:11;;;;;;;47.88;12.48;;;6.40;99.90;;;;;;4986731;28;20085;-74
2022/01/13 10:00:39;;;;;;;41.97;11.05;;;6.40;99.90;;;;;;4981736;28;20029;-74
2022/01/13 10:03:16;;;;;;;46.55;13.75;;;6.40;99.90;;;;;;4989738;28;20023;-73
2022/01/13 10:05:52;;;;;;;52.42;12.73;;;6.40;99.90;;;;;;4993617;28;20027;-73
2022/01/13 10:08:55;;;;;;;51.83;13.52;;;6.40;99.90;;;;;;4982916;28;20037;-77
2022/01/13 10:11:42;;;;;;;51.65;14.15;;;6.40;99.90;;;;;;4989235;28;20031;-75
2022/01/13 10:16:22;;;;;;;37.57;11.70;;;6.50;99.90;;;;;;4985942;28;20079;-75
2022/01/13 10:17:01;;;;;;;51.35;13.98;;;6.40;99.90;;;;;;4996057;28;20094;-75
2022/01/13 10:19:28;;;;;;;58.50;13.07;;;6.50;99.90;;;;;;4992532;28;20039;-76
2022/01/13 10:21:57;;;;;;;37.75;11.70;;;6.50;99.90;;;;;;4992644;28;20026;-76
2022/01/13 10:24:28;;;;;;;44.55;13.43;;;6.50;99.90;;;;;;4988672;28;20106;-75
2022/01/13 10:27:03;;;;;;;50.33;12.32;;;6.50;99.90;;;;;;4987219;28;20023;-74
2022/01/13 10:29:39;;;;;;;51.25;13.07;;;6.50;99.90;;;;;;4979465;28;20046;-76
2022/01/13 10:32:05;;;;;;;44.55;12.80;;;6.50;99.90;;;;;;4983992;28;20054;-75
2022/01/13 10:34:32;;;;;;;52.88;13.75;;;6.50;99.90;;;;;;4985807;28;20030;-74
2022/01/13 10:36:59;;;;;;;48.35;13.18;;;6.50;99.90;;;;;;4985267;28;20015;-76
2022/01/13 10:40:04;;;;;;;47.80;12.73;;;6.60;99.90;;;;;;4981942;28;20023;-74
2022/01/13 10:45:04;;;;;;;68.05;19.80;;;6.60;99.90;;;;;;4982121;28;20030;-76
2022/01/13 10:47:30;;;;;;;48.17;12.73;;;6.60;99.90;;;;;;4997158;28;20038;-76
2022/01/13 10:50:11;;;;;;;50.72;14.00;;;6.50;99.90;;;;;;4997052;28;20026;-75
2022/01/13 10:52:38;;;;;;;54.60;14.43;;;6.60;99.90;;;;;;4993287;28;20023;-76
2022/01/13 10:56:02;;;;;;;41.58;13.10;;;6.60;99.90;;;;;;4989864;28;21076;-76
2022/01/13 10:58:37;;;;;;;59.63;14.73;;;6.60;99.90;;;;;;4973073;28;20066;-76
2022/01/13 11:01:05;;;;;;;52.72;14.00;;;6.60;99.90;;;;;;4989975;28;20026;-76
2022/01/13 11:03:34;;;;;;;50.13;15.57;;;6.70;99.90;;;;;;4990922;28;20050;-76
2022/01/13 11:06:03;;;;;;;57.95;13.27;;;6.70;99.90;;;;;;4990789;28;20286;-73
2022/01/13 11:08:41;;;;;;;52.00;16.42;;;6.80;99.90;;;;;;4993937;28;20026;-75
2022/01/13 11:11:17;;;;;;;51.20;13.57;;;6.80;99.90;;;;;;4985344;28;20031;-74
2022/01/13 11:13:54;;;;;;;61.90;21.30;;;6.90;99.90;;;;;;4973250;28;20034;-73
2022/01/13 11:16:24;;;;;;;57.58;15.23;;;6.80;99.90;;;;;;4969008;28;20027;-75
2022/01/13 11:18:50;;;;;;;49.42;14.82;;;6.90;99.90;;;;;;4976681;28;20034;-75
2022/01/13 11:21:16;;;;;;;57.10;15.43;;;6.90;99.90;;;;;;4965598;28;20154;-75
2022/01/13 11:23:45;;;;;;;58.40;14.80;;;6.90;99.90;;;;;;4971634;28;20501;-74
2022/01/13 11:26:15;;;;;;;50.17;14.57;;;6.90;99.90;;;;;;4963494;28;20061;-75
2022/01/13 11:28:41;;;;;;;56.80;15.13;;;6.80;99.90;;;;;;4962124;28;20106;-74
2022/01/13 11:31:08;;;;;;;50.40;14.80;;;6.70;99.90;;;;;;4970724;28;20106;-75
2022/01/13 11:33:35;;;;;;;55.33;13.25;;;6.70;99.90;;;;;;4973176;28;20062;-75
2022/01/13 11:36:02;;;;;;;205.52;60.83;;;6.70;99.90;;;;;;4970544;28;20069;-75
2022/01/13 11:38:30;;;;;;;188.95;70.80;;;6.70;99.90;;;;;;4975111;28;20041;-74
2022/01/13 11:41:02;;;;;;;50.92;15.23;;;6.70;99.90;;;;;;4974342;28;20114;-74
2022/01/13 11:43:31;;;;;;;52.75;15.27;;;6.60;99.90;;;;;;4972507;28;20034;-74
2022/01/13 11:46:24;;;;;;;45.67;12.82;;;6.60;99.90;;;;;;4963016;28;20402;-75
2022/01/13 11:49:09;;;;;;;47.20;11.85;;;6.70;99.90;;;;;;4975567;28;20027;-75
2022/01/13 11:52:16;;;;;;;53.13;12.55;;;6.70;99.90;;;;;;4973645;28;20089;-76
2022/01/13 11:54:43;;;;;;;58.88;13.13;;;6.70;99.90;;;;;;4974155;28;20101;-76
2022/01/13 11:57:27;;;;;;;55.38;12.75;;;6.70;99.90;;;;;;4973614;28;20027;-76
2022/01/13 11:59:56;;;;;;;39.55;12.38;;;6.70;99.90;;;;;;4960367;28;20035;-76
2022/01/13 12:02:38;;;;;;;46.60;12.73;;;6.70;99.90;;;;;;4968630;28;20041;-74
2022/01/13 12:05:09;;;;;;;40.55;11.93;;;6.70;99.90;;;;;;4968542;28;20077;-75
2022/01/13 12:07:39;;;;;;;37.75;12.38;;;6.80;99.90;;;;;;4965241;28;20042;-75
2022/01/13 12:10:06;;;;;;;46.80;13.13;;;6.70;99.90;;;;;;4966102;28;20035;-76
2022/01/13 12:12:34;;;;;;;44.45;12.73;;;6.70;99.90;;;;;;4967622;28;20445;-74
2022/01/13 12:15:19;;;;;;;41.65;11.18;;;6.70;99.90;;;;;;4971109;28;20027;-75
2022/01/13 12:17:47;;;;;;;40.92;11.90;;;6.70;99.90;;;;;;4970741;28;20027;-75
2022/01/13 12:20:41;;;;;;;41.75;12.75;;;6.70;99.90;;;;;;4965534;28;20482;-75
2022/01/13 12:23:37;;;;;;;49.38;12.43;;;6.70;99.90;;;;;;4968765;28;20031;-73
2022/01/13 12:26:03;;;;;;;40.25;11.90;;;6.70;99.90;;;;;;4974173;28;20041;-74
2022/01/13 12:28:29;;;;;;;37.50;11.63;;;6.70;99.90;;;;;;4963638;28;20114;-74
2022/01/13 12:30:54;;;;;;;49.92;14.05;;;6.80;99.90;;;;;;4973414;28;20018;-74
2022/01/13 12:33:31;;;;;;;41.38;12.93;;;6.70;99.90;;;;;;4973404;28;20051;-75
2022/01/13 12:35:57;;;;;;;42.42;11.73;;;6.80;99.90;;;;;;4971522;28;20457;-75
2022/01/13 12:38:23;;;;;;;41.50;12.05;;;6.90;99.90;;;;;;4973526;28;20122;-74
2022/01/13 12:41:00;;;;;;;40.85;11.30;;;6.90;99.90;;;;;;4972731;28;20042;-75
2022/01/13 12:46:16;;;;;;;45.70;11.25;;;6.90;99.90;;;;;;4969296;28;20038;-74
2022/01/13 12:48:45;;;;;;;41.65;11.95;;;6.80;99.90;;;;;;4972027;28;20501;-74
2022/01/13 12:51:16;;;;;;;44.55;11.70;;;6.80;99.90;;;;;;4972705;28;20050;-74
2022/01/13 12:53:42;;;;;;;39.58;10.98;;;6.80;99.90;;;;;;4962635;28;20499;-75
2022/01/13 12:56:24;;;;;;;37.05;11.35;;;6.80;99.90;;;;;;4961246;28;20043;-75
2022/01/13 12:58:53;;;;;;;37.78;10.98;;;6.80;99.90;;;;;;4957923;28;20121;-75
2022/01/13 13:01:22;;;;;;;39.30;11.45;;;6.70;99.90;;;;;;4970778;28;20506;-75
2022/01/13 13:04:08;;;;;;;38.40;11.80;;;6.70;99.90;;;;;;4966598;28;20030;-74
2022/01/13 13:06:38;;;;;;;39.42;13.15;;;6.80;99.90;;;;;;4961341;28;20522;-74
2022/01/13 13:09:10;;;;;;;42.13;11.65;;;6.80;99.90;;;;;;4969255;28;20022;-75
2022/01/13 13:11:43;;;;;;;44.45;12.43;;;6.80;99.90;;;;;;4970346;28;20413;-75
2022/01/13 13:14:16;;;;;;;41.42;12.15;;;6.80;99.90;;;;;;4972894;28;20019;-75
2022/01/13 13:16:42;;;;;;;36.53;12.10;;;6.70;99.90;;;;;;4970873;28;20033;-73
2022/01/13 13:19:12;;;;;;;50.65;13.48;;;6.80;99.90;;;;;;4956350;28;20043;-75